Time;durP1;ratioP1;P1;durP2;ratioP2;P2;SDS_P1;SDS_P2;PMS_P1;PMS_P2;Temp;Humidity;BMP_temperature;BMP_pressure;BME280_temperature;BME280_humidity;BME280_pressure;Samples;Min_cycle;Max_cycle;Signal;HPM_P1;HPM_P2
2023/12/13 00:00:10;;;;;;;4.70;1.63;;;;;;;;;;472095;28;1042;-75
2023/12/13 00:00:26;;;;;;;4.70;1.60;;;;;;;;;;484728;28;1401;-76
2023/12/13 00:00:41;;;;;;;3.65;1.30;;;;;;;;;;471657;28;1201;-75
2023/12/13 00:00:56;;;;;;;3.83;1.10;;;;;;;;;;469763;28;1064;-74
2023/12/13 00:01:12;;;;;;;4.50;1.13;;;;;;;;;;469238;28;1104;-75
2023/12/13 00:01:27;;;;;;;5.32;1.55;;;;;;;;;;473570;28;950;-75
2023/12/13 00:01:43;;;;;;;4.80;1.47;;;;;;;;;;469440;28;972;-75
2023/12/13 00:01:58;;;;;;;3.58;1.10;;;;;;;;;;470678;28;1727;-75
2023/12/13 00:02:14;;;;;;;2.83;1.03;;;;;;;;;;471704;28;1272;-75
2023/12/13 00:02:29;;;;;;;2.92;1.00;;;;;;;;;;483693;28;1145;-75
2023/12/13 00:02:44;;;;;;;3.30;0.97;;;;;;;;;;469782;28;846;-75
2023/12/13 00:03:01;;;;;;;3.97;0.90;;;;;;;;;;470340;28;1167;-75
2023/12/13 00:03:16;;;;;;;3.60;0.85;;;;;;;;;;476842;28;890;-75
2023/12/13 00:03:32;;;;;;;2.03;0.80;;;;;;;;;;480440;28;1330;-75
2023/12/13 00:03:47;;;;;;;2.28;0.80;;;;;;;;;;469850;28;1078;-75
2023/12/13 00:04:03;;;;;;;2.87;0.90;;;;;;;;;;471900;28;1217;-75
2023/12/13 00:04:18;;;;;;;2.88;1.00;;;;;;;;;;482157;28;1023;-76
2023/12/13 00:04:33;;;;;;;2.87;1.00;;;;;;;;;;481292;28;1064;-75
2023/12/13 00:04:49;;;;;;;2.67;0.88;;;;;;;;;;472205;28;1270;-75
2023/12/13 00:05:05;;;;;;;2.57;0.90;;;;;;;;;;473297;28;1000;-75
2023/12/13 00:05:20;;;;;;;2.78;0.82;;;;;;;;;;483712;28;1083;-74
2023/12/13 00:05:36;;;;;;;3.33;1.20;;;;;;;;;;480240;28;1055;-75
2023/12/13 00:05:51;;;;;;;3.23;1.20;;;;;;;;;;472110;28;1084;-75
2023/12/13 00:06:07;;;;;;;2.47;0.90;;;;;;;;;;475588;28;1092;-77
2023/12/13 00:06:22;;;;;;;2.90;0.93;;;;;;;;;;482597;28;1297;-74
2023/12/13 00:06:38;;;;;;;3.67;0.80;;;;;;;;;;473249;28;1360;-75
2023/12/13 00:06:53;;;;;;;3.35;0.80;;;;;;;;;;470101;28;1239;-75
2023/12/13 00:07:08;;;;;;;2.77;1.00;;;;;;;;;;470743;28;1269;-75
2023/12/13 00:07:24;;;;;;;2.22;0.82;;;;;;;;;;482584;28;1025;-75
2023/12/13 00:07:39;;;;;;;1.80;0.70;;;;;;;;;;471721;28;1045;-74
2023/12/13 00:07:54;;;;;;;2.40;0.73;;;;;;;;;;471671;28;1011;-75
2023/12/13 00:08:10;;;;;;;2.90;0.80;;;;;;;;;;473045;28;1261;-75
2023/12/13 00:08:25;;;;;;;2.47;0.67;;;;;;;;;;487560;27;1007;-75
2023/12/13 00:08:41;;;;;;;2.10;0.57;;;;;;;;;;475378;27;1170;-74
2023/12/13 00:08:57;;;;;;;2.03;0.50;;;;;;;;;;473941;28;1165;-74
2023/12/13 00:09:12;;;;;;;1.95;0.55;;;;;;;;;;470211;28;1092;-75
2023/12/13 00:09:28;;;;;;;1.75;0.60;;;;;;;;;;467798;28;1394;-75
2023/12/13 00:09:43;;;;;;;1.60;0.60;;;;;;;;;;466568;28;1375;-75
2023/12/13 00:09:58;;;;;;;2.00;0.50;;;;;;;;;;466047;28;1137;-74
2023/12/13 00:10:14;;;;;;;2.20;0.60;;;;;;;;;;467875;28;997;-75
2023/12/13 00:10:29;;;;;;;2.25;0.68;;;;;;;;;;480134;28;1153;-76
2023/12/13 00:10:44;;;;;;;2.03;0.60;;;;;;;;;;467514;28;1047;-75
2023/12/13 00:11:00;;;;;;;1.90;0.57;;;;;;;;;;470143;28;1221;-75
2023/12/13 00:11:15;;;;;;;2.17;0.70;;;;;;;;;;473473;28;957;-75
2023/12/13 00:11:31;;;;;;;1.80;0.70;;;;;;;;;;470860;28;1014;-74
2023/12/13 00:11:47;;;;;;;2.25;0.63;;;;;;;;;;467938;28;1271;-75
2023/12/13 00:12:02;;;;;;;2.53;0.70;;;;;;;;;;468329;28;1337;-75
2023/12/13 00:12:18;;;;;;;3.22;0.73;;;;;;;;;;473873;28;909;-75
2023/12/13 00:12:33;;;;;;;3.13;0.70;;;;;;;;;;478133;28;1029;-75
2023/12/13 00:12:48;;;;;;;1.75;0.70;;;;;;;;;;468923;28;1266;-75
2023/12/13 00:13:04;;;;;;;1.30;0.60;;;;;;;;;;468849;28;1068;-75
2023/12/13 00:13:20;;;;;;;2.00;0.63;;;;;;;;;;474525;28;1072;-75
2023/12/13 00:13:35;;;;;;;2.07;0.70;;;;;;;;;;468613;28;1196;-75
2023/12/13 00:13:50;;;;;;;1.60;0.60;;;;;;;;;;468928;28;890;-75
2023/12/13 00:14:07;;;;;;;1.25;0.50;;;;;;;;;;471211;28;970;-75
2023/12/13 00:14:22;;;;;;;1.15;0.60;;;;;;;;;;480865;28;1093;-76
2023/12/13 00:14:38;;;;;;;1.30;0.60;;;;;;;;;;471094;28;1226;-74
2023/12/13 00:14:53;;;;;;;2.60;0.70;;;;;;;;;;466702;28;1102;-74
2023/12/13 00:15:09;;;;;;;2.90;0.83;;;;;;;;;;469564;28;1023;-75
2023/12/13 00:15:24;;;;;;;2.13;0.80;;;;;;;;;;484086;28;1130;-75
2023/12/13 00:15:40;;;;;;;1.90;0.70;;;;;;;;;;473545;28;927;-75
2023/12/13 00:15:55;;;;;;;2.10;0.80;;;;;;;;;;471849;28;1942;-75
2023/12/13 00:16:10;;;;;;;2.37;0.80;;;;;;;;;;470595;28;1098;-75
2023/12/13 00:16:26;;;;;;;1.93;0.60;;;;;;;;;;487097;28;953;-75
2023/12/13 00:16:41;;;;;;;2.33;0.60;;;;;;;;;;470856;28;1672;-75
2023/12/13 00:16:57;;;;;;;2.60;0.70;;;;;;;;;;482091;28;1300;-76
2023/12/13 00:17:14;;;;;;;1.87;0.50;;;;;;;;;;471828;28;924;-75
2023/12/13 00:17:29;;;;;;;1.77;0.52;;;;;;;;;;486743;28;1328;-75
2023/12/13 00:17:45;;;;;;;2.45;0.70;;;;;;;;;;471347;28;909;-74
2023/12/13 00:18:00;;;;;;;2.63;0.70;;;;;;;;;;468948;28;1084;-75
2023/12/13 00:18:16;;;;;;;2.28;0.63;;;;;;;;;;473659;28;1289;-75
2023/12/13 00:18:31;;;;;;;1.70;0.53;;;;;;;;;;468153;28;1086;-74
2023/12/13 00:18:47;;;;;;;0.90;0.43;;;;;;;;;;468353;28;1215;-75
2023/12/13 00:19:04;;;;;;;1.00;0.40;;;;;;;;;;468865;28;984;-75
2023/12/13 00:19:20;;;;;;;1.58;0.50;;;;;;;;;;476828;28;1401;-75
2023/12/13 00:19:36;;;;;;;1.67;0.60;;;;;;;;;;476578;28;1304;-75
2023/12/13 00:19:51;;;;;;;1.58;0.60;;;;;;;;;;470394;28;898;-74
2023/12/13 00:20:07;;;;;;;2.40;0.60;;;;;;;;;;470519;28;925;-75
2023/12/13 00:20:22;;;;;;;2.85;0.60;;;;;;;;;;483143;28;1044;-75
2023/12/13 00:20:38;;;;;;;1.87;0.50;;;;;;;;;;479882;28;1076;-74
2023/12/13 00:20:54;;;;;;;1.20;0.40;;;;;;;;;;471223;28;1084;-75
2023/12/13 00:21:09;;;;;;;1.23;0.40;;;;;;;;;;472844;28;941;-75
2023/12/13 00:21:25;;;;;;;1.05;0.40;;;;;;;;;;487253;28;866;-75
2023/12/13 00:21:40;;;;;;;1.60;0.40;;;;;;;;;;473523;28;1329;-75
2023/12/13 00:21:56;;;;;;;2.10;0.50;;;;;;;;;;472370;28;1079;-75
2023/12/13 00:22:11;;;;;;;1.63;0.50;;;;;;;;;;471820;28;1158;-75
2023/12/13 00:22:26;;;;;;;1.80;0.40;;;;;;;;;;488622;28;1125;-75
2023/12/13 00:22:42;;;;;;;1.67;0.43;;;;;;;;;;473057;28;1103;-75
2023/12/13 00:22:57;;;;;;;1.87;0.50;;;;;;;;;;483976;28;1148;-75
2023/12/13 00:23:13;;;;;;;2.25;0.50;;;;;;;;;;472221;28;1302;-75
2023/12/13 00:23:28;;;;;;;1.43;0.50;;;;;;;;;;476678;28;1262;-75
2023/12/13 00:23:46;;;;;;;1.17;0.50;;;;;;;;;;469832;28;1204;-75
2023/12/13 00:24:01;;;;;;;1.70;0.40;;;;;;;;;;469927;28;910;-74
2023/12/13 00:24:17;;;;;;;1.55;0.30;;;;;;;;;;474566;28;1393;-75
2023/12/13 00:24:32;;;;;;;1.40;0.40;;;;;;;;;;475968;28;923;-75
2023/12/13 00:24:47;;;;;;;1.27;0.50;;;;;;;;;;469125;28;1164;-74
2023/12/13 00:25:03;;;;;;;1.30;0.43;;;;;;;;;;469476;28;1299;-75
2023/12/13 00:25:19;;;;;;;1.42;0.45;;;;;;;;;;476587;28;980;-75
2023/12/13 00:25:34;;;;;;;1.50;0.50;;;;;;;;;;479967;28;1266;-75
2023/12/13 00:25:50;;;;;;;1.80;0.50;;;;;;;;;;471631;28;980;-75
2023/12/13 00:26:11;;;;;;;1.63;0.50;;;;;;;;;;472257;28;953;-74
2023/12/13 00:26:27;;;;;;;2.50;0.60;;;;;;;;;;487315;28;977;-75
2023/12/13 00:26:42;;;;;;;2.10;0.50;;;;;;;;;;473013;28;890;-75
2023/12/13 00:26:58;;;;;;;1.70;0.47;;;;;;;;;;474185;27;1075;-74
2023/12/13 00:27:13;;;;;;;1.83;0.60;;;;;;;;;;474252;28;1084;-75
2023/12/13 00:27:29;;;;;;;1.85;0.70;;;;;;;;;;490447;28;1308;-74
2023/12/13 00:27:44;;;;;;;1.70;0.67;;;;;;;;;;474134;28;900;-74
2023/12/13 00:28:00;;;;;;;1.75;0.50;;;;;;;;;;471544;28;1329;-74
2023/12/13 00:28:15;;;;;;;1.70;0.47;;;;;;;;;;474714;28;1496;-74
2023/12/13 00:28:31;;;;;;;1.83;0.40;;;;;;;;;;486071;28;1065;-74
2023/12/13 00:28:46;;;;;;;1.73;0.50;;;;;;;;;;469720;28;1046;-74
2023/12/13 00:29:01;;;;;;;2.03;0.50;;;;;;;;;;469210;28;1149;-75
2023/12/13 00:29:17;;;;;;;1.93;0.60;;;;;;;;;;474118;28;1187;-74
2023/12/13 00:29:32;;;;;;;1.15;0.50;;;;;;;;;;476904;28;940;-75
2023/12/13 00:29:48;;;;;;;1.77;0.53;;;;;;;;;;469274;28;1143;-75
2023/12/13 00:30:04;;;;;;;2.15;0.65;;;;;;;;;;468782;28;1201;-74
2023/12/13 00:30:19;;;;;;;1.77;0.60;;;;;;;;;;476708;28;915;-74
2023/12/13 00:30:34;;;;;;;1.33;0.55;;;;;;;;;;479958;28;1069;-75
2023/12/13 00:30:50;;;;;;;1.10;0.47;;;;;;;;;;471305;28;1057;-74
2023/12/13 00:31:06;;;;;;;1.20;0.50;;;;;;;;;;472046;28;1153;-75
2023/12/13 00:31:21;;;;;;;1.27;0.50;;;;;;;;;;484294;28;1045;-75
2023/12/13 00:31:36;;;;;;;1.43;0.50;;;;;;;;;;473598;28;1140;-75
2023/12/13 00:31:52;;;;;;;1.53;0.50;;;;;;;;;;470755;28;1079;-75
2023/12/13 00:32:07;;;;;;;1.85;0.40;;;;;;;;;;471694;28;1191;-75
2023/12/13 00:32:23;;;;;;;2.03;0.40;;;;;;;;;;475257;28;1199;-74
2023/12/13 00:32:38;;;;;;;1.88;0.40;;;;;;;;;;469337;28;1564;-74
2023/12/13 00:32:54;;;;;;;1.53;0.40;;;;;;;;;;471053;28;1044;-75
2023/12/13 00:33:09;;;;;;;1.35;0.60;;;;;;;;;;472048;28;998;-74
2023/12/13 00:33:24;;;;;;;1.63;0.63;;;;;;;;;;484536;28;1048;-75
2023/12/13 00:33:40;;;;;;;1.47;0.47;;;;;;;;;;475854;28;1470;-74
2023/12/13 00:33:55;;;;;;;1.20;0.30;;;;;;;;;;470698;28;925;-75
2023/12/13 00:34:11;;;;;;;1.90;0.40;;;;;;;;;;472973;28;896;-75
2023/12/13 00:34:26;;;;;;;2.23;0.53;;;;;;;;;;487670;28;1087;-75
2023/12/13 00:34:41;;;;;;;2.08;0.57;;;;;;;;;;477179;28;972;-75
2023/12/13 00:34:57;;;;;;;1.70;0.60;;;;;;;;;;480758;28;916;-74
2023/12/13 00:35:12;;;;;;;1.27;0.50;;;;;;;;;;471901;28;1072;-74
2023/12/13 00:35:27;;;;;;;2.78;0.55;;;;;;;;;;489669;28;1175;-74
2023/12/13 00:35:43;;;;;;;3.77;0.70;;;;;;;;;;474514;28;1139;-75
2023/12/13 00:35:58;;;;;;;2.03;0.60;;;;;;;;;;472984;28;1957;-74
2023/12/13 00:36:14;;;;;;;1.40;0.40;;;;;;;;;;475339;28;953;-74
2023/12/13 00:36:29;;;;;;;2.40;0.50;;;;;;;;;;491624;28;1010;-75
2023/12/13 00:36:45;;;;;;;1.97;0.50;;;;;;;;;;473786;28;906;-75
2023/12/13 00:37:00;;;;;;;1.40;0.50;;;;;;;;;;472557;27;1174;-74
2023/12/13 00:37:15;;;;;;;1.70;0.60;;;;;;;;;;475192;28;1182;-74
2023/12/13 00:37:31;;;;;;;1.80;0.50;;;;;;;;;;474744;28;1130;-75
2023/12/13 00:37:46;;;;;;;1.58;0.40;;;;;;;;;;473541;28;1187;-75
2023/12/13 00:38:02;;;;;;;1.17;0.40;;;;;;;;;;471702;28;1109;-74
2023/12/13 00:38:18;;;;;;;1.80;0.50;;;;;;;;;;475951;28;1234;-74
2023/12/13 00:38:33;;;;;;;2.17;0.45;;;;;;;;;;472631;28;976;-74
2023/12/13 00:38:48;;;;;;;1.60;0.40;;;;;;;;;;469166;28;1121;-75
2023/12/13 00:39:05;;;;;;;1.70;0.70;;;;;;;;;;469559;28;1119;-74
2023/12/13 00:39:21;;;;;;;2.22;0.75;;;;;;;;;;479410;28;945;-74
2023/12/13 00:39:36;;;;;;;1.52;0.50;;;;;;;;;;479298;28;1073;-75
2023/12/13 00:39:52;;;;;;;1.80;0.50;;;;;;;;;;467925;28;1275;-75
2023/12/13 00:40:10;;;;;;;1.50;0.40;;;;;;;;;;469266;28;1196;-75
2023/12/13 00:40:25;;;;;;;1.10;0.50;;;;;;;;;;475085;28;2356;-75
2023/12/13 00:40:41;;;;;;;1.50;0.43;;;;;;;;;;470803;28;1157;-74
2023/12/13 00:40:56;;;;;;;1.65;0.45;;;;;;;;;;469242;28;1365;-75
2023/12/13 00:41:11;;;;;;;1.83;0.50;;;;;;;;;;472416;28;941;-75
2023/12/13 00:41:27;;;;;;;1.52;0.40;;;;;;;;;;487637;28;1045;-75
2023/12/13 00:41:42;;;;;;;1.50;0.40;;;;;;;;;;475518;28;927;-75
2023/12/13 00:41:58;;;;;;;1.70;0.50;;;;;;;;;;473612;28;999;-75
2023/12/13 00:42:13;;;;;;;2.55;0.43;;;;;;;;;;472175;28;1209;-74
2023/12/13 00:42:28;;;;;;;1.97;0.40;;;;;;;;;;489591;28;1162;-75
2023/12/13 00:42:44;;;;;;;1.07;0.40;;;;;;;;;;473148;28;1115;-74
2023/12/13 00:43:01;;;;;;;1.98;0.40;;;;;;;;;;472849;28;971;-75
2023/12/13 00:43:17;;;;;;;2.80;0.50;;;;;;;;;;479032;28;1388;-74
2023/12/13 00:43:32;;;;;;;1.95;0.50;;;;;;;;;;481660;28;1177;-74
2023/12/13 00:43:48;;;;;;;1.93;0.40;;;;;;;;;;471030;28;1234;-75
2023/12/13 00:44:03;;;;;;;1.63;0.40;;;;;;;;;;471618;28;1620;-74
2023/12/13 00:44:19;;;;;;;1.90;0.50;;;;;;;;;;477334;28;1233;-75
2023/12/13 00:44:34;;;;;;;1.70;0.50;;;;;;;;;;484820;28;1028;-74
2023/12/13 00:44:49;;;;;;;1.33;0.40;;;;;;;;;;469941;28;1234;-74
2023/12/13 00:45:05;;;;;;;1.67;0.50;;;;;;;;;;469181;28;1078;-74
2023/12/13 00:45:21;;;;;;;1.23;0.40;;;;;;;;;;476190;28;1151;-74
2023/12/13 00:45:36;;;;;;;0.80;0.30;;;;;;;;;;478676;28;1057;-75
2023/12/13 00:45:52;;;;;;;1.20;0.40;;;;;;;;;;467908;28;1169;-74
2023/12/13 00:46:19;;;;;;;1.70;0.50;;;;;;;;;;467411;28;1018;-75
2023/12/13 00:46:34;;;;;;;1.55;0.43;;;;;;;;;;482772;28;1054;-75
2023/12/13 00:46:50;;;;;;;1.70;0.40;;;;;;;;;;468846;28;1202;-74
2023/12/13 00:47:05;;;;;;;1.60;0.50;;;;;;;;;;469500;28;1058;-75
2023/12/13 00:47:21;;;;;;;1.08;0.45;;;;;;;;;;480481;28;1065;-74
2023/12/13 00:47:37;;;;;;;1.50;0.40;;;;;;;;;;481587;28;1072;-75
2023/12/13 00:47:52;;;;;;;2.38;0.40;;;;;;;;;;470845;28;874;-74
2023/12/13 00:48:08;;;;;;;2.07;0.50;;;;;;;;;;472961;28;1701;-74
2023/12/13 00:48:23;;;;;;;1.98;0.47;;;;;;;;;;485498;28;1003;-74
2023/12/13 00:48:38;;;;;;;2.47;0.40;;;;;;;;;;480801;28;1119;-75
2023/12/13 00:48:54;;;;;;;2.28;0.40;;;;;;;;;;473138;28;936;-75
2023/12/13 00:49:09;;;;;;;1.73;0.50;;;;;;;;;;474790;28;1024;-74
2023/12/13 00:49:25;;;;;;;1.87;0.50;;;;;;;;;;489711;27;945;-75
2023/12/13 00:49:40;;;;;;;2.08;0.50;;;;;;;;;;482209;27;1088;-75
2023/12/13 00:49:55;;;;;;;1.40;0.40;;;;;;;;;;475472;27;1151;-74
2023/12/13 00:50:11;;;;;;;1.10;0.40;;;;;;;;;;476063;27;873;-74
2023/12/13 00:50:26;;;;;;;1.60;0.40;;;;;;;;;;478434;27;1056;-74
2023/12/13 00:50:42;;;;;;;1.80;0.40;;;;;;;;;;472976;28;1286;-75
2023/12/13 00:50:57;;;;;;;2.33;0.38;;;;;;;;;;473222;28;1093;-74
2023/12/13 00:51:19;;;;;;;2.30;0.47;;;;;;;;;;472892;28;1024;-75
2023/12/13 00:51:35;;;;;;;2.15;0.50;;;;;;;;;;484721;28;987;-74
2023/12/13 00:51:50;;;;;;;1.57;0.50;;;;;;;;;;469529;28;1146;-74
2023/12/13 00:52:06;;;;;;;1.65;0.40;;;;;;;;;;469359;28;1123;-74
2023/12/13 00:52:21;;;;;;;1.50;0.40;;;;;;;;;;480155;28;1294;-75
2023/12/13 00:52:37;;;;;;;0.90;0.30;;;;;;;;;;480781;28;1207;-74
2023/12/13 00:52:52;;;;;;;1.13;0.40;;;;;;;;;;470195;28;1081;-75
2023/12/13 00:53:07;;;;;;;1.30;0.50;;;;;;;;;;471628;28;1479;-75
2023/12/13 00:53:23;;;;;;;1.42;0.50;;;;;;;;;;481511;28;1188;-74
2023/12/13 00:53:38;;;;;;;1.77;0.50;;;;;;;;;;478009;28;1308;-74
2023/12/13 00:53:54;;;;;;;1.92;0.40;;;;;;;;;;469316;28;1022;-74
2023/12/13 00:54:09;;;;;;;1.87;0.40;;;;;;;;;;472462;28;1217;-74
2023/12/13 00:54:25;;;;;;;2.30;0.40;;;;;;;;;;485227;28;976;-74
2023/12/13 00:54:41;;;;;;;2.22;0.50;;;;;;;;;;479628;28;973;-74
2023/12/13 00:54:56;;;;;;;1.33;0.40;;;;;;;;;;475772;28;1132;-75
2023/12/13 00:55:11;;;;;;;1.37;0.30;;;;;;;;;;477742;28;1365;-74
2023/12/13 00:55:28;;;;;;;2.13;0.45;;;;;;;;;;488943;28;1341;-74
2023/12/13 00:55:43;;;;;;;2.28;0.50;;;;;;;;;;479668;27;1403;-74
2023/12/13 00:55:58;;;;;;;1.70;0.47;;;;;;;;;;474629;28;2018;-74
2023/12/13 00:56:14;;;;;;;1.02;0.40;;;;;;;;;;475696;28;1308;-75
2023/12/13 00:56:31;;;;;;;1.00;0.40;;;;;;;;;;491695;28;1465;-74
2023/12/13 00:56:46;;;;;;;1.05;0.38;;;;;;;;;;473423;27;1036;-74
2023/12/13 00:57:02;;;;;;;1.00;0.40;;;;;;;;;;475553;27;1292;-74
2023/12/13 00:57:18;;;;;;;1.20;0.40;;;;;;;;;;480489;28;1209;-75
2023/12/13 00:57:33;;;;;;;1.00;0.30;;;;;;;;;;489110;28;1379;-74
2023/12/13 00:57:49;;;;;;;0.90;0.30;;;;;;;;;;473554;28;1292;-74
2023/12/13 00:58:04;;;;;;;0.80;0.40;;;;;;;;;;473788;28;1117;-75
2023/12/13 00:58:20;;;;;;;0.95;0.30;;;;;;;;;;479224;28;1736;-75
2023/12/13 00:58:35;;;;;;;0.97;0.40;;;;;;;;;;475352;28;1326;-74
2023/12/13 00:58:50;;;;;;;0.82;0.30;;;;;;;;;;470362;28;1334;-74
2023/12/13 00:59:06;;;;;;;1.30;0.30;;;;;;;;;;469553;28;1363;-75
2023/12/13 00:59:21;;;;;;;1.10;0.40;;;;;;;;;;478329;28;1185;-75
2023/12/13 00:59:36;;;;;;;1.08;0.30;;;;;;;;;;477664;28;1374;-74
2023/12/13 00:59:52;;;;;;;1.43;0.40;;;;;;;;;;467740;28;1342;-74
2023/12/13 01:00:09;;;;;;;1.23;0.40;;;;;;;;;;468600;28;1444;-75
2023/12/13 01:00:25;;;;;;;0.90;0.30;;;;;;;;;;482218;28;1057;-74
2023/12/13 01:00:40;;;;;;;0.93;0.30;;;;;;;;;;467958;28;1403;-74
2023/12/13 01:00:55;;;;;;;1.65;0.40;;;;;;;;;;467908;28;1184;-74
2023/12/13 01:01:11;;;;;;;2.30;0.63;;;;;;;;;;469306;28;1451;-74
2023/12/13 01:01:26;;;;;;;1.87;0.57;;;;;;;;;;479118;28;1684;-74
2023/12/13 01:01:44;;;;;;;1.05;0.32;;;;;;;;;;469906;28;1629;-74
2023/12/13 01:02:00;;;;;;;1.77;0.40;;;;;;;;;;471984;28;1621;-74
2023/12/13 01:02:15;;;;;;;1.92;0.50;;;;;;;;;;475678;28;1005;-74
2023/12/13 01:02:31;;;;;;;1.30;0.40;;;;;;;;;;488113;28;1887;-74
2023/12/13 01:02:47;;;;;;;1.67;0.40;;;;;;;;;;473835;27;1428;-74
2023/12/13 01:03:02;;;;;;;2.25;0.45;;;;;;;;;;476027;27;1383;-74
2023/12/13 01:03:18;;;;;;;1.83;0.40;;;;;;;;;;480949;27;1331;-74
2023/12/13 01:03:33;;;;;;;0.90;0.30;;;;;;;;;;494875;27;1348;-74
2023/12/13 01:03:48;;;;;;;1.00;0.30;;;;;;;;;;477816;27;1366;-74
2023/12/13 01:04:03;;;;;;;1.03;0.40;;;;;;;;;;474218;27;1647;-74
2023/12/13 01:04:19;;;;;;;1.20;0.40;;;;;;;;;;476329;28;1464;-74
2023/12/13 01:04:36;;;;;;;1.23;0.40;;;;;;;;;;489759;28;1330;-74
2023/12/13 01:04:51;;;;;;;2.15;0.43;;;;;;;;;;475791;28;1430;-74
2023/12/13 01:05:07;;;;;;;1.87;0.50;;;;;;;;;;472734;28;1535;-74
2023/12/13 01:05:23;;;;;;;0.60;0.38;;;;;;;;;;472655;28;1388;-74
2023/12/13 01:05:38;;;;;;;1.67;0.30;;;;;;;;;;468807;28;1347;-74
2023/12/13 01:05:53;;;;;;;1.88;0.40;;;;;;;;;;469547;28;1333;-74
2023/12/13 01:06:09;;;;;;;1.50;0.50;;;;;;;;;;471975;28;1382;-74
2023/12/13 01:06:24;;;;;;;1.40;0.40;;;;;;;;;;486859;28;1571;-74
2023/12/13 01:06:40;;;;;;;1.30;0.40;;;;;;;;;;483243;28;1053;-74
2023/12/13 01:06:55;;;;;;;1.30;0.40;;;;;;;;;;473466;28;1333;-74
2023/12/13 01:07:11;;;;;;;1.10;0.30;;;;;;;;;;473861;28;1316;-75
2023/12/13 01:07:26;;;;;;;1.40;0.40;;;;;;;;;;490725;27;1413;-74
2023/12/13 01:07:42;;;;;;;1.03;0.30;;;;;;;;;;475266;27;1455;-74
2023/12/13 01:07:57;;;;;;;1.00;0.30;;;;;;;;;;472792;28;1437;-74
2023/12/13 01:08:12;;;;;;;1.03;0.30;;;;;;;;;;473731;28;1378;-74
2023/12/13 01:08:28;;;;;;;1.23;0.30;;;;;;;;;;477707;28;1021;-74
2023/12/13 01:08:43;;;;;;;1.40;0.30;;;;;;;;;;466987;28;1409;-74
2023/12/13 01:08:58;;;;;;;1.08;0.30;;;;;;;;;;468475;28;1338;-74
2023/12/13 01:09:14;;;;;;;1.17;0.33;;;;;;;;;;471104;28;1416;-74
2023/12/13 01:09:29;;;;;;;2.17;0.40;;;;;;;;;;485161;28;1343;-74
2023/12/13 01:09:44;;;;;;;2.07;0.40;;;;;;;;;;471898;28;1324;-74
2023/12/13 01:10:00;;;;;;;1.60;0.40;;;;;;;;;;469474;28;887;-74
2023/12/13 01:10:16;;;;;;;1.42;0.50;;;;;;;;;;474610;28;1342;-74
2023/12/13 01:10:31;;;;;;;1.67;0.55;;;;;;;;;;490063;28;1360;-74
2023/12/13 01:10:47;;;;;;;2.30;0.40;;;;;;;;;;473388;28;1525;-75
2023/12/13 01:11:06;;;;;;;2.27;0.40;;;;;;;;;;470014;28;1690;-74
2023/12/13 01:11:24;;;;;;;1.98;0.40;;;;;;;;;;481990;28;1345;-75
2023/12/13 01:11:39;;;;;;;1.90;0.45;;;;;;;;;;482621;28;1379;-74
2023/12/13 01:11:55;;;;;;;1.77;0.40;;;;;;;;;;469510;28;1415;-74
2023/12/13 01:12:10;;;;;;;0.80;0.30;;;;;;;;;;470261;28;1371;-74
2023/12/13 01:12:25;;;;;;;1.13;0.30;;;;;;;;;;485755;28;1339;-74
2023/12/13 01:12:44;;;;;;;1.23;0.30;;;;;;;;;;479180;28;1125;-74
2023/12/13 01:13:00;;;;;;;0.98;0.30;;;;;;;;;;470484;28;1290;-74
2023/12/13 01:13:16;;;;;;;1.10;0.30;;;;;;;;;;476872;28;1641;-75
2023/12/13 01:13:31;;;;;;;1.13;0.30;;;;;;;;;;491297;28;1032;-74
2023/12/13 01:13:47;;;;;;;1.40;0.40;;;;;;;;;;475155;27;1592;-74
2023/12/13 01:14:04;;;;;;;1.10;0.40;;;;;;;;;;492193;27;1331;-74
2023/12/13 01:14:19;;;;;;;0.90;0.40;;;;;;;;;;481740;28;1344;-74
2023/12/13 01:14:34;;;;;;;1.07;0.40;;;;;;;;;;490501;28;1394;-74
2023/12/13 01:14:50;;;;;;;1.40;0.40;;;;;;;;;;474542;28;1543;-73
2023/12/13 01:15:05;;;;;;;1.00;0.30;;;;;;;;;;474167;28;1334;-74
2023/12/13 01:15:22;;;;;;;0.77;0.30;;;;;;;;;;483944;28;1346;-74
2023/12/13 01:15:37;;;;;;;1.30;0.30;;;;;;;;;;486470;28;1411;-74
2023/12/13 01:15:52;;;;;;;1.20;0.30;;;;;;;;;;473633;27;1941;-74
2023/12/13 01:16:08;;;;;;;1.00;0.37;;;;;;;;;;472802;28;953;-74
2023/12/13 01:16:23;;;;;;;1.70;0.43;;;;;;;;;;477374;28;1330;-74
2023/12/13 01:16:38;;;;;;;1.63;0.40;;;;;;;;;;467979;28;1558;-73
2023/12/13 01:16:54;;;;;;;1.13;0.40;;;;;;;;;;469705;28;1290;-74
2023/12/13 01:17:10;;;;;;;0.97;0.40;;;;;;;;;;469057;28;1330;-73
2023/12/13 01:17:26;;;;;;;0.98;0.40;;;;;;;;;;471648;28;1423;-74
2023/12/13 01:17:41;;;;;;;1.30;0.40;;;;;;;;;;470302;28;1300;-74
2023/12/13 01:17:56;;;;;;;1.23;0.30;;;;;;;;;;470468;28;1591;-74
2023/12/13 01:18:12;;;;;;;1.13;0.40;;;;;;;;;;471639;28;1102;-74
2023/12/13 01:18:27;;;;;;;1.52;0.40;;;;;;;;;;487393;28;1705;-74
2023/12/13 01:18:42;;;;;;;2.00;0.40;;;;;;;;;;479995;28;1381;-74
2023/12/13 01:18:58;;;;;;;1.98;0.47;;;;;;;;;;470586;28;1249;-74
2023/12/13 01:19:14;;;;;;;1.17;0.40;;;;;;;;;;475486;28;1378;-74
2023/12/13 01:19:29;;;;;;;1.25;0.30;;;;;;;;;;472335;28;1458;-74
2023/12/13 01:19:44;;;;;;;2.50;0.40;;;;;;;;;;471109;28;1328;-74
2023/12/13 01:20:01;;;;;;;2.50;0.60;;;;;;;;;;469340;28;1449;-74
2023/12/13 01:20:16;;;;;;;1.42;0.50;;;;;;;;;;474785;28;1432;-74
2023/12/13 01:20:32;;;;;;;2.10;0.40;;;;;;;;;;488097;28;917;-74
2023/12/13 01:20:47;;;;;;;2.67;0.50;;;;;;;;;;473119;28;1543;-74
2023/12/13 01:21:03;;;;;;;1.23;0.35;;;;;;;;;;471808;28;1355;-74
2023/12/13 01:21:18;;;;;;;0.80;0.30;;;;;;;;;;478511;28;1417;-74
2023/12/13 01:21:34;;;;;;;1.27;0.32;;;;;;;;;;488747;28;1434;-74
2023/12/13 01:21:49;;;;;;;1.00;0.30;;;;;;;;;;470354;28;1370;-74
2023/12/13 01:22:05;;;;;;;1.43;0.40;;;;;;;;;;469039;28;1380;-74
2023/12/13 01:22:20;;;;;;;2.10;0.60;;;;;;;;;;479068;28;1127;-74
2023/12/13 01:22:36;;;;;;;1.73;0.53;;;;;;;;;;486545;28;1553;-74
2023/12/13 01:22:51;;;;;;;2.05;0.40;;;;;;;;;;471644;28;1441;-74
2023/12/13 01:23:06;;;;;;;2.97;0.40;;;;;;;;;;472921;28;1189;-74
2023/12/13 01:23:22;;;;;;;2.35;0.40;;;;;;;;;;479676;28;1370;-74
2023/12/13 01:23:37;;;;;;;1.47;0.40;;;;;;;;;;482146;28;1096;-74
2023/12/13 01:23:52;;;;;;;1.10;0.40;;;;;;;;;;469285;28;1151;-74
2023/12/13 01:24:08;;;;;;;0.85;0.30;;;;;;;;;;470658;28;1297;-74
2023/12/13 01:24:23;;;;;;;1.50;0.30;;;;;;;;;;483825;28;1155;-74
2023/12/13 01:24:39;;;;;;;1.50;0.40;;;;;;;;;;483097;28;973;-74
2023/12/13 01:24:54;;;;;;;1.15;0.45;;;;;;;;;;469408;28;1539;-74
2023/12/13 01:25:09;;;;;;;0.73;0.40;;;;;;;;;;472307;28;1339;-74
2023/12/13 01:25:25;;;;;;;1.17;0.40;;;;;;;;;;488537;28;892;-74
2023/12/13 01:25:40;;;;;;;1.53;0.50;;;;;;;;;;485506;28;1234;-74
2023/12/13 01:25:55;;;;;;;1.17;0.40;;;;;;;;;;473722;28;1396;-74
2023/12/13 01:26:11;;;;;;;1.30;0.50;;;;;;;;;;472337;28;1076;-74
2023/12/13 01:26:26;;;;;;;1.30;0.40;;;;;;;;;;475179;28;1452;-74
2023/12/13 01:26:41;;;;;;;1.10;0.30;;;;;;;;;;469013;28;1340;-74
2023/12/13 01:26:59;;;;;;;1.25;0.40;;;;;;;;;;471626;28;1378;-74
2023/12/13 01:27:15;;;;;;;1.23;0.40;;;;;;;;;;473558;28;966;-74
2023/12/13 01:27:30;;;;;;;1.67;0.40;;;;;;;;;;489457;28;1045;-73
2023/12/13 01:27:45;;;;;;;1.70;0.40;;;;;;;;;;477092;28;1442;-74
2023/12/13 01:28:01;;;;;;;1.92;0.50;;;;;;;;;;470310;28;1227;-74
2023/12/13 01:28:16;;;;;;;2.53;0.60;;;;;;;;;;473310;28;1391;-74
2023/12/13 01:28:31;;;;;;;2.30;0.50;;;;;;;;;;470766;28;993;-74
2023/12/13 01:28:47;;;;;;;2.00;0.40;;;;;;;;;;471434;28;945;-74
2023/12/13 01:29:02;;;;;;;1.60;0.40;;;;;;;;;;469287;28;1084;-74
2023/12/13 01:29:18;;;;;;;1.50;0.40;;;;;;;;;;472345;28;1015;-74
2023/12/13 01:29:33;;;;;;;2.20;0.40;;;;;;;;;;469152;28;1337;-74
2023/12/13 01:29:48;;;;;;;2.97;0.40;;;;;;;;;;469736;28;1050;-74
2023/12/13 01:30:04;;;;;;;1.92;0.40;;;;;;;;;;471879;28;1092;-74
2023/12/13 01:30:20;;;;;;;1.40;0.40;;;;;;;;;;477244;28;1081;-73
2023/12/13 01:30:35;;;;;;;1.30;0.40;;;;;;;;;;478026;28;1030;-74
2023/12/13 01:30:52;;;;;;;0.83;0.40;;;;;;;;;;468628;28;1065;-74
2023/12/13 01:31:08;;;;;;;1.73;0.53;;;;;;;;;;470422;28;904;-73
2023/12/13 01:31:23;;;;;;;1.43;0.47;;;;;;;;;;479946;28;997;-73
2023/12/13 01:31:38;;;;;;;1.83;0.40;;;;;;;;;;483911;28;1327;-74
2023/12/13 01:31:54;;;;;;;2.30;0.47;;;;;;;;;;477619;28;1145;-74
2023/12/13 01:32:09;;;;;;;1.37;0.40;;;;;;;;;;481098;28;1359;-74
2023/12/13 01:32:25;;;;;;;1.38;0.40;;;;;;;;;;485359;28;1017;-74
2023/12/13 01:32:40;;;;;;;1.33;0.40;;;;;;;;;;477433;28;1127;-74
2023/12/13 01:32:55;;;;;;;1.20;0.40;;;;;;;;;;471873;28;969;-74
2023/12/13 01:33:11;;;;;;;2.00;0.50;;;;;;;;;;471147;28;918;-73
2023/12/13 01:33:26;;;;;;;1.87;0.40;;;;;;;;;;479621;28;1109;-73
2023/12/13 01:33:41;;;;;;;1.13;0.40;;;;;;;;;;470452;28;1049;-74
2023/12/13 01:33:56;;;;;;;1.30;0.50;;;;;;;;;;470638;28;1085;-74
2023/12/13 01:34:12;;;;;;;1.43;0.50;;;;;;;;;;471423;28;1188;-74
2023/12/13 01:34:28;;;;;;;1.03;0.33;;;;;;;;;;488947;28;917;-73
2023/12/13 01:34:43;;;;;;;0.95;0.40;;;;;;;;;;469594;28;1401;-74
2023/12/13 01:34:59;;;;;;;2.00;0.50;;;;;;;;;;468077;28;1039;-74
2023/12/13 01:35:14;;;;;;;1.70;0.40;;;;;;;;;;469018;28;1251;-73
2023/12/13 01:35:29;;;;;;;1.40;0.40;;;;;;;;;;475481;28;1495;-74
2023/12/13 01:35:45;;;;;;;1.50;0.50;;;;;;;;;;468368;28;866;-74
2023/12/13 01:36:02;;;;;;;0.87;0.40;;;;;;;;;;470652;28;2020;-74
2023/12/13 01:36:17;;;;;;;1.02;0.30;;;;;;;;;;476997;28;1316;-74
2023/12/13 01:36:39;;;;;;;2.10;0.40;;;;;;;;;;470302;28;1141;-74
2023/12/13 01:36:54;;;;;;;2.30;0.40;;;;;;;;;;471305;28;1338;-74